Main page
METAR-TAF:

METAR-TAF

Airports :

Maiduguri International Airport

Maiduguri, Nigeria

latitude: 11-51N, longitude: 013-05E, elevation: 354 m

METAR: missing

Time: 05:20 (04:20 UTC)

Forecast

The report was made 5 hours and 20 minutes ago, at 23:00 UTC
Forecast valid from 25 at 00 UTC to 26 at 06 UTC
Wind 8 kt from the West
Visibility 10 km or more
Few clouds at a height of 1200 ft

TAF: DNMA 242300Z 2500/2606 26008KT 9999 FEW012

Weather observations and forecasts of more than 4000 airports (METAR and TAF reports).

The available stations are represented by yellow and red dots on the map.

Hover mouse over dot to see the name of the station.

Then click to see weather observations and forecasts.

To change the map : click on the green buttons with a black cross to zoom in, on the green button with a dash to zoom out, or on the green arrows for adjacent maps.


METAR-TAF: